sensor_id;sensor_type;location;lat;lon;timestamp;pressure;altitude;pressure_sealevel;temperature;humidity
21236;BME280;10775;42.678;26.324;2023-06-22T00:01:58;98863.34;;;25.16;66.91
21236;BME280;10775;42.678;26.324;2023-06-22T00:04:24;98870.03;;;25.22;66.69
21236;BME280;10775;42.678;26.324;2023-06-22T00:06:49;98876.88;;;25.02;67.42
21236;BME280;10775;42.678;26.324;2023-06-22T00:09:15;98865.44;;;24.89;67.97
21236;BME280;10775;42.678;26.324;2023-06-22T00:11:40;98871.66;;;24.65;67.35
21236;BME280;10775;42.678;26.324;2023-06-22T00:14:05;98869.50;;;24.34;69.01
21236;BME280;10775;42.678;26.324;2023-06-22T00:16:34;98869.69;;;24.19;69.91
21236;BME280;10775;42.678;26.324;2023-06-22T00:19:00;98873.91;;;23.85;70.98
21236;BME280;10775;42.678;26.324;2023-06-22T00:21:27;98865.81;;;24.23;70.55
21236;BME280;10775;42.678;26.324;2023-06-22T00:23:53;98864.88;;;24.48;69.28
21236;BME280;10775;42.678;26.324;2023-06-22T00:26:19;98862.31;;;24.71;68.82
21236;BME280;10775;42.678;26.324;2023-06-22T00:28:44;98862.94;;;24.74;68.97
21236;BME280;10775;42.678;26.324;2023-06-22T00:31:10;98866.38;;;24.52;67.78
21236;BME280;10775;42.678;26.324;2023-06-22T00:33:35;98870.28;;;23.99;70.42
21236;BME280;10775;42.678;26.324;2023-06-22T00:36:01;98858.69;;;24.48;69.71
21236;BME280;10775;42.678;26.324;2023-06-22T00:38:28;98860.28;;;24.50;67.67
21236;BME280;10775;42.678;26.324;2023-06-22T00:40:54;98858.84;;;24.82;68.49
21236;BME280;10775;42.678;26.324;2023-06-22T00:43:19;98869.00;;;25.12;67.49
21236;BME280;10775;42.678;26.324;2023-06-22T00:45:45;98866.38;;;25.23;66.72
21236;BME280;10775;42.678;26.324;2023-06-22T00:48:12;98868.22;;;25.23;66.65
21236;BME280;10775;42.678;26.324;2023-06-22T00:50:37;98861.00;;;25.12;67.18
21236;BME280;10775;42.678;26.324;2023-06-22T00:53:08;98872.81;;;24.00;68.61
21236;BME280;10775;42.678;26.324;2023-06-22T00:55:38;98869.66;;;23.31;73.27
21236;BME280;10775;42.678;26.324;2023-06-22T00:58:06;98865.69;;;24.01;72.11
21236;BME280;10775;42.678;26.324;2023-06-22T01:00:36;98852.63;;;24.46;69.96
21236;BME280;10775;42.678;26.324;2023-06-22T01:03:02;98864.66;;;23.91;69.63
21236;BME280;10775;42.678;26.324;2023-06-22T01:05:28;98855.84;;;22.86;76.05
21236;BME280;10775;42.678;26.324;2023-06-22T01:10:51;98854.72;;;23.29;75.48
21236;BME280;10775;42.678;26.324;2023-06-22T01:16:14;98857.66;;;24.14;71.81
21236;BME280;10775;42.678;26.324;2023-06-22T01:18:43;98856.53;;;24.53;70.05
21236;BME280;10775;42.678;26.324;2023-06-22T01:21:12;98848.63;;;24.87;68.43
21236;BME280;10775;42.678;26.324;2023-06-22T01:24:10;98856.91;;;24.95;68.07
21236;BME280;10775;42.678;26.324;2023-06-22T01:26:39;98847.72;;;24.64;69.04
21236;BME280;10775;42.678;26.324;2023-06-22T01:29:08;98848.03;;;24.83;68.53
21236;BME280;10775;42.678;26.324;2023-06-22T01:31:37;98848.91;;;24.95;67.83
21236;BME280;10775;42.678;26.324;2023-06-22T01:34:05;98846.22;;;24.95;68.08
21236;BME280;10775;42.678;26.324;2023-06-22T01:36:32;98848.13;;;24.70;68.27
21236;BME280;10775;42.678;26.324;2023-06-22T01:38:58;98843.63;;;24.10;71.00
21236;BME280;10775;42.678;26.324;2023-06-22T01:41:26;98839.00;;;24.49;68.09
21236;BME280;10775;42.678;26.324;2023-06-22T01:43:53;98835.75;;;24.33;69.34
21236;BME280;10775;42.678;26.324;2023-06-22T01:46:21;98839.03;;;24.12;70.70
21236;BME280;10775;42.678;26.324;2023-06-22T01:48:47;98845.13;;;24.38;70.11
21236;BME280;10775;42.678;26.324;2023-06-22T01:51:13;98836.41;;;24.60;69.08
21236;BME280;10775;42.678;26.324;2023-06-22T01:53:39;98839.44;;;24.67;68.72
21236;BME280;10775;42.678;26.324;2023-06-22T01:56:05;98835.41;;;24.50;67.06
21236;BME280;10775;42.678;26.324;2023-06-22T01:58:31;98841.19;;;23.44;71.88
21236;BME280;10775;42.678;26.324;2023-06-22T02:01:10;98841.31;;;24.05;72.00
21236;BME280;10775;42.678;26.324;2023-06-22T02:04:06;98847.94;;;24.61;69.31
21236;BME280;10775;42.678;26.324;2023-06-22T02:06:37;98849.72;;;24.49;69.15
21236;BME280;10775;42.678;26.324;2023-06-22T02:09:12;98842.50;;;24.25;68.55
21236;BME280;10775;42.678;26.324;2023-06-22T02:11:41;98850.94;;;23.95;71.76
21236;BME280;10775;42.678;26.324;2023-06-22T02:14:08;98853.47;;;23.09;74.38
21236;BME280;10775;42.678;26.324;2023-06-22T02:16:33;98838.94;;;23.26;74.58
21236;BME280;10775;42.678;26.324;2023-06-22T02:19:01;98848.41;;;23.94;71.89
21236;BME280;10775;42.678;26.324;2023-06-22T02:21:31;98850.19;;;24.06;70.36
21236;BME280;10775;42.678;26.324;2023-06-22T02:23:57;98849.84;;;23.35;73.80
21236;BME280;10775;42.678;26.324;2023-06-22T02:26:24;98844.19;;;23.53;73.47
21236;BME280;10775;42.678;26.324;2023-06-22T02:28:50;98852.59;;;23.47;71.43
21236;BME280;10775;42.678;26.324;2023-06-22T02:31:15;98861.19;;;24.01;72.04
21236;BME280;10775;42.678;26.324;2023-06-22T02:33:41;98870.38;;;23.97;71.66
21236;BME280;10775;42.678;26.324;2023-06-22T02:36:06;98857.19;;;24.44;70.04
21236;BME280;10775;42.678;26.324;2023-06-22T02:38:37;98869.16;;;24.51;69.19
21236;BME280;10775;42.678;26.324;2023-06-22T02:41:02;98871.78;;;24.27;70.17
21236;BME280;10775;42.678;26.324;2023-06-22T02:43:28;98872.00;;;23.87;71.00
21236;BME280;10775;42.678;26.324;2023-06-22T02:45:53;98870.53;;;24.20;70.59
21236;BME280;10775;42.678;26.324;2023-06-22T02:48:19;98875.53;;;23.87;70.73
21236;BME280;10775;42.678;26.324;2023-06-22T02:50:44;98877.63;;;23.95;71.22
21236;BME280;10775;42.678;26.324;2023-06-22T02:53:10;98874.06;;;23.58;72.42
21236;BME280;10775;42.678;26.324;2023-06-22T02:55:35;98876.50;;;23.48;70.92
21236;BME280;10775;42.678;26.324;2023-06-22T02:58:01;98876.72;;;23.58;73.06
21236;BME280;10775;42.678;26.324;2023-06-22T03:00:29;98883.31;;;24.03;71.36
21236;BME280;10775;42.678;26.324;2023-06-22T03:02:56;98877.00;;;24.28;70.10
21236;BME280;10775;42.678;26.324;2023-06-22T03:05:22;98872.78;;;24.13;70.30
21236;BME280;10775;42.678;26.324;2023-06-22T03:07:48;98877.00;;;24.28;69.85
21236;BME280;10775;42.678;26.324;2023-06-22T03:10:15;98874.16;;;24.56;69.01
21236;BME280;10775;42.678;26.324;2023-06-22T03:12:41;98878.19;;;24.61;68.56
21236;BME280;10775;42.678;26.324;2023-06-22T03:15:08;98886.38;;;24.10;69.49
21236;BME280;10775;42.678;26.324;2023-06-22T03:17:35;98874.13;;;24.32;69.62
21236;BME280;10775;42.678;26.324;2023-06-22T03:20:02;98872.88;;;24.24;69.89
21236;BME280;10775;42.678;26.324;2023-06-22T03:22:34;98879.53;;;24.43;69.45
21236;BME280;10775;42.678;26.324;2023-06-22T03:25:00;98881.38;;;24.66;68.46
21236;BME280;10775;42.678;26.324;2023-06-22T03:27:25;98890.06;;;24.20;69.23
21236;BME280;10775;42.678;26.324;2023-06-22T03:29:50;98886.91;;;24.52;68.86
21236;BME280;10775;42.678;26.324;2023-06-22T03:32:16;98884.69;;;24.33;69.51
21236;BME280;10775;42.678;26.324;2023-06-22T03:34:41;98885.94;;;24.53;68.71
21236;BME280;10775;42.678;26.324;2023-06-22T03:37:13;98900.63;;;23.72;70.22
21236;BME280;10775;42.678;26.324;2023-06-22T03:39:39;98901.00;;;24.17;70.23
21236;BME280;10775;42.678;26.324;2023-06-22T03:42:05;98897.75;;;23.88;67.86
21236;BME280;10775;42.678;26.324;2023-06-22T03:44:31;98895.50;;;23.69;72.08
21236;BME280;10775;42.678;26.324;2023-06-22T03:46:56;98902.97;;;23.90;71.14
21236;BME280;10775;42.678;26.324;2023-06-22T03:49:21;98900.72;;;23.45;71.74
21236;BME280;10775;42.678;26.324;2023-06-22T03:51:47;98898.97;;;23.06;74.12
21236;BME280;10775;42.678;26.324;2023-06-22T03:54:12;98894.75;;;23.54;72.48
21236;BME280;10775;42.678;26.324;2023-06-22T03:56:38;98901.69;;;23.44;70.17
21236;BME280;10775;42.678;26.324;2023-06-22T03:59:03;98895.47;;;23.05;72.77
21236;BME280;10775;42.678;26.324;2023-06-22T04:01:29;98899.06;;;22.37;74.92
21236;BME280;10775;42.678;26.324;2023-06-22T04:03:54;98891.91;;;22.65;75.78
21236;BME280;10775;42.678;26.324;2023-06-22T04:06:19;98895.06;;;23.11;71.83
21236;BME280;10775;42.678;26.324;2023-06-22T04:08:45;98898.91;;;22.93;72.94
21236;BME280;10775;42.678;26.324;2023-06-22T04:11:16;98904.25;;;23.58;70.25
21236;BME280;10775;42.678;26.324;2023-06-22T04:13:42;98908.59;;;23.98;71.31
21236;BME280;10775;42.678;26.324;2023-06-22T04:16:08;98899.00;;;24.45;69.28
21236;BME280;10775;42.678;26.324;2023-06-22T04:18:33;98892.91;;;24.67;67.80
21236;BME280;10775;42.678;26.324;2023-06-22T04:20:59;98894.94;;;24.87;67.38
21236;BME280;10775;42.678;26.324;2023-06-22T04:23:24;98895.06;;;24.86;67.00
21236;BME280;10775;42.678;26.324;2023-06-22T04:25:50;98898.91;;;25.06;66.40
21236;BME280;10775;42.678;26.324;2023-06-22T04:28:16;98906.34;;;25.13;66.04
21236;BME280;10775;42.678;26.324;2023-06-22T04:30:41;98908.53;;;25.08;66.27
21236;BME280;10775;42.678;26.324;2023-06-22T04:33:14;98908.56;;;25.20;65.79
21236;BME280;10775;42.678;26.324;2023-06-22T04:35:40;98908.38;;;25.34;65.11
21236;BME280;10775;42.678;26.324;2023-06-22T04:38:07;98907.25;;;25.25;65.34
21236;BME280;10775;42.678;26.324;2023-06-22T04:40:32;98904.81;;;25.33;64.85
21236;BME280;10775;42.678;26.324;2023-06-22T04:42:58;98912.00;;;25.33;64.98
21236;BME280;10775;42.678;26.324;2023-06-22T04:45:28;98917.13;;;25.36;64.86
21236;BME280;10775;42.678;26.324;2023-06-22T04:47:54;98913.84;;;25.32;65.03
21236;BME280;10775;42.678;26.324;2023-06-22T04:50:20;98907.03;;;25.40;64.73
21236;BME280;10775;42.678;26.324;2023-06-22T04:52:47;98919.19;;;25.44;64.40
21236;BME280;10775;42.678;26.324;2023-06-22T04:55:14;98922.34;;;25.37;64.55
21236;BME280;10775;42.678;26.324;2023-06-22T04:57:44;98919.78;;;25.36;64.71
21236;BME280;10775;42.678;26.324;2023-06-22T05:00:19;98928.22;;;25.54;64.07
21236;BME280;10775;42.678;26.324;2023-06-22T05:02:48;98918.59;;;25.51;63.77
21236;BME280;10775;42.678;26.324;2023-06-22T05:05:14;98922.25;;;25.62;63.65
21236;BME280;10775;42.678;26.324;2023-06-22T05:07:45;98909.50;;;25.65;63.62
21236;BME280;10775;42.678;26.324;2023-06-22T05:10:12;98913.41;;;25.72;63.16
21236;BME280;10775;42.678;26.324;2023-06-22T05:12:39;98926.38;;;25.43;64.19
21236;BME280;10775;42.678;26.324;2023-06-22T05:15:08;98924.19;;;25.48;64.03
21236;BME280;10775;42.678;26.324;2023-06-22T05:17:35;98922.66;;;25.57;63.87
21236;BME280;10775;42.678;26.324;2023-06-22T05:20:01;98928.09;;;25.44;64.15
21236;BME280;10775;42.678;26.324;2023-06-22T05:22:28;98934.94;;;25.59;63.78
21236;BME280;10775;42.678;26.324;2023-06-22T05:24:53;98932.63;;;25.66;63.55
21236;BME280;10775;42.678;26.324;2023-06-22T05:27:18;98935.69;;;25.73;63.32
21236;BME280;10775;42.678;26.324;2023-06-22T05:29:44;98935.72;;;25.95;62.37
21236;BME280;10775;42.678;26.324;2023-06-22T05:32:09;98935.97;;;26.03;62.08
21236;BME280;10775;42.678;26.324;2023-06-22T05:34:35;98945.22;;;26.11;62.07
21236;BME280;10775;42.678;26.324;2023-06-22T05:37:01;98939.47;;;26.15;61.64
21236;BME280;10775;42.678;26.324;2023-06-22T05:39:27;98939.63;;;25.91;62.72
21236;BME280;10775;42.678;26.324;2023-06-22T05:41:52;98936.56;;;25.85;62.54
21236;BME280;10775;42.678;26.324;2023-06-22T05:44:18;98938.75;;;25.91;62.30
21236;BME280;10775;42.678;26.324;2023-06-22T05:46:44;98944.44;;;25.75;62.83
21236;BME280;10775;42.678;26.324;2023-06-22T05:49:12;98944.00;;;26.03;62.07
21236;BME280;10775;42.678;26.324;2023-06-22T05:51:39;98946.41;;;26.18;61.47
21236;BME280;10775;42.678;26.324;2023-06-22T05:54:05;98948.03;;;26.20;61.31
21236;BME280;10775;42.678;26.324;2023-06-22T05:56:30;98945.56;;;26.17;61.49
21236;BME280;10775;42.678;26.324;2023-06-22T05:58:56;98950.91;;;25.95;62.31
21236;BME280;10775;42.678;26.324;2023-06-22T06:01:21;98944.84;;;26.04;61.61
21236;BME280;10775;42.678;26.324;2023-06-22T06:03:47;98953.22;;;26.22;61.78
21236;BME280;10775;42.678;26.324;2023-06-22T06:06:15;98955.41;;;25.83;62.28
21236;BME280;10775;42.678;26.324;2023-06-22T06:08:40;98949.47;;;25.91;63.47
21236;BME280;10775;42.678;26.324;2023-06-22T06:11:06;98952.88;;;26.04;62.11
21236;BME280;10775;42.678;26.324;2023-06-22T06:13:31;98948.88;;;26.21;61.66
21236;BME280;10775;42.678;26.324;2023-06-22T06:15:57;98942.88;;;26.29;62.55
21236;BME280;10775;42.678;26.324;2023-06-22T06:18:23;98941.03;;;26.40;60.91
21236;BME280;10775;42.678;26.324;2023-06-22T06:20:48;98943.00;;;27.25;59.98
21236;BME280;10775;42.678;26.324;2023-06-22T06:23:14;98943.47;;;27.30;59.31
21236;BME280;10775;42.678;26.324;2023-06-22T06:25:39;98940.44;;;27.87;58.01
21236;BME280;10775;42.678;26.324;2023-06-22T06:28:05;98943.47;;;28.44;55.68
21236;BME280;10775;42.678;26.324;2023-06-22T06:30:30;98937.31;;;28.82;54.79
21236;BME280;10775;42.678;26.324;2023-06-22T06:32:56;98926.13;;;28.96;54.38
21236;BME280;10775;42.678;26.324;2023-06-22T06:35:22;98930.97;;;29.02;54.02
21236;BME280;10775;42.678;26.324;2023-06-22T06:37:49;98924.03;;;29.19;53.05
21236;BME280;10775;42.678;26.324;2023-06-22T06:40:16;98924.06;;;30.13;49.21
21236;BME280;10775;42.678;26.324;2023-06-22T06:42:48;98915.91;;;30.79;49.45
21236;BME280;10775;42.678;26.324;2023-06-22T06:45:19;98919.66;;;30.68;48.37
21236;BME280;10775;42.678;26.324;2023-06-22T06:47:45;98924.78;;;30.71;49.57
21236;BME280;10775;42.678;26.324;2023-06-22T06:50:11;98921.06;;;31.26;48.56
21236;BME280;10775;42.678;26.324;2023-06-22T06:52:37;98923.47;;;30.93;48.18
21236;BME280;10775;42.678;26.324;2023-06-22T06:55:03;98928.47;;;30.88;49.49
21236;BME280;10775;42.678;26.324;2023-06-22T06:57:32;98930.19;;;30.89;48.89
21236;BME280;10775;42.678;26.324;2023-06-22T06:59:59;98918.69;;;31.40;47.51
21236;BME280;10775;42.678;26.324;2023-06-22T07:02:25;98924.19;;;30.67;49.47
21236;BME280;10775;42.678;26.324;2023-06-22T07:04:53;98924.25;;;29.55;51.59
21236;BME280;10775;42.678;26.324;2023-06-22T07:07:20;98922.53;;;30.66;51.01
21236;BME280;10775;42.678;26.324;2023-06-22T07:09:46;98923.72;;;32.22;46.62
21236;BME280;10775;42.678;26.324;2023-06-22T07:12:11;98925.22;;;32.67;45.13
21236;BME280;10775;42.678;26.324;2023-06-22T07:14:36;98919.16;;;32.89;44.42
21236;BME280;10775;42.678;26.324;2023-06-22T07:17:02;98925.22;;;32.67;45.39
21236;BME280;10775;42.678;26.324;2023-06-22T07:19:28;98906.84;;;33.44;42.81
21236;BME280;10775;42.678;26.324;2023-06-22T07:21:54;98919.16;;;31.88;45.04
21236;BME280;10775;42.678;26.324;2023-06-22T07:24:20;98920.38;;;31.68;46.36
21236;BME280;10775;42.678;26.324;2023-06-22T07:26:49;98902.59;;;30.95;46.41
21236;BME280;10775;42.678;26.324;2023-06-22T07:29:18;98909.41;;;30.71;48.86
21236;BME280;10775;42.678;26.324;2023-06-22T07:31:46;98909.97;;;31.81;48.05
21236;BME280;10775;42.678;26.324;2023-06-22T07:34:11;98917.94;;;32.17;47.99
21236;BME280;10775;42.678;26.324;2023-06-22T07:36:37;98910.47;;;32.11;45.17
21236;BME280;10775;42.678;26.324;2023-06-22T07:39:03;98913.19;;;32.11;45.53
21236;BME280;10775;42.678;26.324;2023-06-22T07:41:29;98917.94;;;32.59;44.62
21236;BME280;10775;42.678;26.324;2023-06-22T07:43:55;98913.53;;;31.81;45.69
21236;BME280;10775;42.678;26.324;2023-06-22T07:46:20;98910.63;;;31.31;46.52
21236;BME280;10775;42.678;26.324;2023-06-22T07:48:46;98917.59;;;31.59;45.70
21236;BME280;10775;42.678;26.324;2023-06-22T07:51:12;98915.66;;;32.38;44.94
21236;BME280;10775;42.678;26.324;2023-06-22T07:53:41;98912.34;;;32.53;44.22
21236;BME280;10775;42.678;26.324;2023-06-22T07:56:07;98903.94;;;32.80;43.98
21236;BME280;10775;42.678;26.324;2023-06-22T07:58:33;98910.00;;;32.15;43.98
21236;BME280;10775;42.678;26.324;2023-06-22T08:00:59;98911.00;;;32.14;43.93
21236;BME280;10775;42.678;26.324;2023-06-22T08:03:24;98909.75;;;32.43;44.55
21236;BME280;10775;42.678;26.324;2023-06-22T08:05:50;98918.63;;;32.61;44.23
21236;BME280;10775;42.678;26.324;2023-06-22T08:08:16;98898.53;;;32.80;45.62
21236;BME280;10775;42.678;26.324;2023-06-22T08:10:42;98910.41;;;33.20;43.20
21236;BME280;10775;42.678;26.324;2023-06-22T08:13:08;98903.56;;;32.67;42.11
21236;BME280;10775;42.678;26.324;2023-06-22T08:15:33;98911.63;;;32.42;43.81
21236;BME280;10775;42.678;26.324;2023-06-22T08:17:59;98895.16;;;32.78;44.74
21236;BME280;10775;42.678;26.324;2023-06-22T08:20:26;98905.63;;;32.81;42.86
21236;BME280;10775;42.678;26.324;2023-06-22T08:22:53;98900.41;;;33.21;43.80
21236;BME280;10775;42.678;26.324;2023-06-22T08:25:19;98904.94;;;32.79;41.71
21236;BME280;10775;42.678;26.324;2023-06-22T08:27:45;98896.53;;;31.19;45.49
21236;BME280;10775;42.678;26.324;2023-06-22T08:30:12;98895.06;;;31.25;48.11
21236;BME280;10775;42.678;26.324;2023-06-22T08:32:37;98894.72;;;31.02;45.56
21236;BME280;10775;42.678;26.324;2023-06-22T08:35:03;98903.72;;;30.29;47.31
21236;BME280;10775;42.678;26.324;2023-06-22T08:37:29;98894.16;;;30.98;46.82
21236;BME280;10775;42.678;26.324;2023-06-22T08:40:02;98887.53;;;31.36;46.52
21236;BME280;10775;42.678;26.324;2023-06-22T08:42:31;98884.28;;;31.25;48.15
21236;BME280;10775;42.678;26.324;2023-06-22T08:44:57;98893.31;;;30.80;48.60
21236;BME280;10775;42.678;26.324;2023-06-22T08:47:22;98895.41;;;30.86;48.54
21236;BME280;10775;42.678;26.324;2023-06-22T08:49:48;98897.47;;;30.74;49.43
21236;BME280;10775;42.678;26.324;2023-06-22T08:52:14;98900.75;;;30.50;49.52
21236;BME280;10775;42.678;26.324;2023-06-22T08:54:39;98901.28;;;30.36;49.47
21236;BME280;10775;42.678;26.324;2023-06-22T08:57:05;98905.53;;;30.38;50.04
21236;BME280;10775;42.678;26.324;2023-06-22T08:59:31;98906.75;;;30.16;50.64
21236;BME280;10775;42.678;26.324;2023-06-22T09:01:56;98900.63;;;30.24;49.65
21236;BME280;10775;42.678;26.324;2023-06-22T09:04:22;98906.00;;;29.96;50.86
21236;BME280;10775;42.678;26.324;2023-06-22T09:06:48;98901.25;;;29.80;51.89
21236;BME280;10775;42.678;26.324;2023-06-22T09:09:15;98913.34;;;29.66;51.68
21236;BME280;10775;42.678;26.324;2023-06-22T09:11:41;98908.81;;;29.57;52.56
21236;BME280;10775;42.678;26.324;2023-06-22T09:14:06;98904.72;;;29.43;53.42
21236;BME280;10775;42.678;26.324;2023-06-22T09:16:32;98904.84;;;29.52;51.47
21236;BME280;10775;42.678;26.324;2023-06-22T09:18:58;98906.81;;;29.59;52.06
21236;BME280;10775;42.678;26.324;2023-06-22T09:21:23;98916.16;;;29.55;51.04
21236;BME280;10775;42.678;26.324;2023-06-22T09:23:49;98905.66;;;29.62;51.89
21236;BME280;10775;42.678;26.324;2023-06-22T09:26:19;98905.41;;;29.65;52.42
21236;BME280;10775;42.678;26.324;2023-06-22T09:28:45;98903.28;;;29.96;50.96
21236;BME280;10775;42.678;26.324;2023-06-22T09:31:10;98907.59;;;30.17;50.94
21236;BME280;10775;42.678;26.324;2023-06-22T09:33:36;98892.00;;;31.19;47.99
21236;BME280;10775;42.678;26.324;2023-06-22T09:36:05;98897.06;;;31.67;46.09
21236;BME280;10775;42.678;26.324;2023-06-22T09:38:37;98885.63;;;31.73;46.57
21236;BME280;10775;42.678;26.324;2023-06-22T09:41:03;98882.59;;;31.76;47.05
21236;BME280;10775;42.678;26.324;2023-06-22T09:43:31;98888.69;;;31.78;46.16
21236;BME280;10775;42.678;26.324;2023-06-22T09:45:56;98881.31;;;31.88;46.31
21236;BME280;10775;42.678;26.324;2023-06-22T09:48:22;98885.94;;;30.82;47.07
21236;BME280;10775;42.678;26.324;2023-06-22T09:50:47;98881.28;;;31.10;45.56
21236;BME280;10775;42.678;26.324;2023-06-22T09:53:13;98876.47;;;31.66;46.07
21236;BME280;10775;42.678;26.324;2023-06-22T09:55:38;98884.13;;;31.78;44.40
21236;BME280;10775;42.678;26.324;2023-06-22T09:58:04;98878.25;;;32.25;45.91
21236;BME280;10775;42.678;26.324;2023-06-22T10:00:29;98874.56;;;31.58;43.57
21236;BME280;10775;42.678;26.324;2023-06-22T10:02:55;98872.81;;;31.31;47.10
21236;BME280;10775;42.678;26.324;2023-06-22T10:05:21;98876.75;;;31.89;44.19
21236;BME280;10775;42.678;26.324;2023-06-22T10:07:47;98872.63;;;30.70;45.93
21236;BME280;10775;42.678;26.324;2023-06-22T10:10:13;98874.25;;;30.18;46.87
21236;BME280;10775;42.678;26.324;2023-06-22T10:12:45;98865.25;;;30.54;45.88
21236;BME280;10775;42.678;26.324;2023-06-22T10:15:11;98870.25;;;30.49;46.80
21236;BME280;10775;42.678;26.324;2023-06-22T10:17:37;98872.91;;;31.21;45.85
21236;BME280;10775;42.678;26.324;2023-06-22T10:20:03;98876.94;;;31.61;45.81
21236;BME280;10775;42.678;26.324;2023-06-22T10:22:36;98868.59;;;32.15;44.92
21236;BME280;10775;42.678;26.324;2023-06-22T10:25:02;98873.25;;;31.96;44.61
21236;BME280;10775;42.678;26.324;2023-06-22T10:27:27;98873.53;;;31.59;46.80
21236;BME280;10775;42.678;26.324;2023-06-22T10:29:52;98870.72;;;30.63;49.52
21236;BME280;10775;42.678;26.324;2023-06-22T10:32:19;98870.63;;;30.37;49.98
21236;BME280;10775;42.678;26.324;2023-06-22T10:34:44;98863.75;;;30.42;47.48
21236;BME280;10775;42.678;26.324;2023-06-22T10:37:10;98862.13;;;30.31;48.18
21236;BME280;10775;42.678;26.324;2023-06-22T10:39:35;98866.66;;;30.03;48.67
21236;BME280;10775;42.678;26.324;2023-06-22T10:42:01;98863.22;;;30.11;48.31
21236;BME280;10775;42.678;26.324;2023-06-22T10:44:26;98866.63;;;30.13;48.60
21236;BME280;10775;42.678;26.324;2023-06-22T10:46:51;98860.19;;;29.96;47.93
21236;BME280;10775;42.678;26.324;2023-06-22T10:49:17;98863.22;;;30.11;48.01
21236;BME280;10775;42.678;26.324;2023-06-22T10:51:42;98857.78;;;29.93;46.97
21236;BME280;10775;42.678;26.324;2023-06-22T10:54:08;98863.53;;;29.80;47.55
21236;BME280;10775;42.678;26.324;2023-06-22T10:56:33;98860.97;;;30.06;46.64
21236;BME280;10775;42.678;26.324;2023-06-22T10:58:59;98864.41;;;30.72;47.62
21236;BME280;10775;42.678;26.324;2023-06-22T11:01:24;98854.06;;;31.03;46.05
21236;BME280;10775;42.678;26.324;2023-06-22T11:03:50;98855.09;;;31.28;46.14
21236;BME280;10775;42.678;26.324;2023-06-22T11:06:15;98848.78;;;31.72;45.24
21236;BME280;10775;42.678;26.324;2023-06-22T11:08:44;98856.97;;;30.84;44.67
21236;BME280;10775;42.678;26.324;2023-06-22T11:11:09;98844.69;;;30.71;44.83
21236;BME280;10775;42.678;26.324;2023-06-22T11:13:35;98851.28;;;30.59;44.08
21236;BME280;10775;42.678;26.324;2023-06-22T11:16:00;98849.00;;;30.82;43.41
21236;BME280;10775;42.678;26.324;2023-06-22T11:18:25;98844.09;;;31.04;43.15
21236;BME280;10775;42.678;26.324;2023-06-22T11:20:51;98847.97;;;31.01;50.56
21236;BME280;10775;42.678;26.324;2023-06-22T11:23:16;98851.59;;;31.10;43.45
21236;BME280;10775;42.678;26.324;2023-06-22T11:25:42;98844.00;;;30.87;43.23
21236;BME280;10775;42.678;26.324;2023-06-22T11:28:08;98845.63;;;31.06;44.08
21236;BME280;10775;42.678;26.324;2023-06-22T11:30:33;98840.81;;;30.56;41.47
21236;BME280;10775;42.678;26.324;2023-06-22T11:32:59;98846.47;;;31.25;43.01
21236;BME280;10775;42.678;26.324;2023-06-22T11:35:25;98842.94;;;31.84;42.74
21236;BME280;10775;42.678;26.324;2023-06-22T11:37:51;98849.84;;;31.27;41.44
21236;BME280;10775;42.678;26.324;2023-06-22T11:40:16;98839.63;;;31.12;46.95
21236;BME280;10775;42.678;26.324;2023-06-22T11:42:43;98841.59;;;30.66;42.86
21236;BME280;10775;42.678;26.324;2023-06-22T11:45:09;98842.88;;;30.44;45.06
21236;BME280;10775;42.678;26.324;2023-06-22T11:47:35;98834.97;;;30.15;46.24
21236;BME280;10775;42.678;26.324;2023-06-22T11:50:02;98853.59;;;30.08;45.54
21236;BME280;10775;42.678;26.324;2023-06-22T11:52:27;98843.00;;;29.69;43.47
21236;BME280;10775;42.678;26.324;2023-06-22T11:54:53;98834.50;;;29.74;44.25
21236;BME280;10775;42.678;26.324;2023-06-22T11:57:18;98835.31;;;29.84;44.53
21236;BME280;10775;42.678;26.324;2023-06-22T11:59:44;98838.34;;;29.99;42.76
21236;BME280;10775;42.678;26.324;2023-06-22T12:02:09;98840.03;;;30.00;42.59
21236;BME280;10775;42.678;26.324;2023-06-22T12:04:35;98835.25;;;29.94;49.82
21236;BME280;10775;42.678;26.324;2023-06-22T12:07:00;98832.50;;;29.76;44.59
21236;BME280;10775;42.678;26.324;2023-06-22T12:09:26;98834.19;;;29.77;46.04
21236;BME280;10775;42.678;26.324;2023-06-22T12:11:51;98840.28;;;30.07;45.55
21236;BME280;10775;42.678;26.324;2023-06-22T12:14:17;98832.94;;;30.45;47.86
21236;BME280;10775;42.678;26.324;2023-06-22T12:16:42;98827.03;;;30.59;43.67
21236;BME280;10775;42.678;26.324;2023-06-22T12:19:09;98824.91;;;31.07;43.42
21236;BME280;10775;42.678;26.324;2023-06-22T12:21:35;98837.03;;;31.03;42.09
21236;BME280;10775;42.678;26.324;2023-06-22T12:24:00;98827.09;;;30.67;42.59
21236;BME280;10775;42.678;26.324;2023-06-22T12:26:25;98837.09;;;30.57;43.58
21236;BME280;10775;42.678;26.324;2023-06-22T12:28:51;98835.63;;;30.45;45.15
21236;BME280;10775;42.678;26.324;2023-06-22T12:31:16;98814.31;;;30.69;43.31
21236;BME280;10775;42.678;26.324;2023-06-22T12:33:42;98821.69;;;30.31;43.75
21236;BME280;10775;42.678;26.324;2023-06-22T12:36:07;98817.00;;;30.69;44.12
21236;BME280;10775;42.678;26.324;2023-06-22T12:38:33;98816.94;;;30.43;46.97
21236;BME280;10775;42.678;26.324;2023-06-22T12:40:59;98812.84;;;30.39;44.25
21236;BME280;10775;42.678;26.324;2023-06-22T12:43:24;98819.94;;;30.40;43.16
21236;BME280;10775;42.678;26.324;2023-06-22T12:45:49;98820.94;;;30.57;43.54
21236;BME280;10775;42.678;26.324;2023-06-22T12:48:15;98821.19;;;30.18;43.42
21236;BME280;10775;42.678;26.324;2023-06-22T12:50:41;98810.59;;;30.70;43.53
21236;BME280;10775;42.678;26.324;2023-06-22T12:53:06;98824.00;;;30.26;43.73